Time;durP1;ratioP1;P1;durP2;ratioP2;P2;SDS_P1;SDS_P2;PMS_P1;PMS_P2;Temp;Humidity;BMP_temperature;BMP_pressure;BME280_temperature;BME280_humidity;BME280_pressure;Samples;Min_cycle;Max_cycle;Signal;HPM_P1;HPM_P2
2020/06/07 00:00:16;;;;;;;3.4;1;;;;;;;;;;;;;
2020/06/07 00:02:44;;;;;;;2.4;1.1;;;;;;;;;;;;;
2020/06/07 00:05:09;;;;;;;2.9;1.4;;;;;;;;;;;;;
2020/06/07 00:07:49;;;;;;;2.4;1.5;;;;;;;;;;;;;
2020/06/07 00:10:02;;;;;;;3.3;1.6;;;;;;;;;;;;;
2020/06/07 00:12:29;;;;;;;3.4;1.4;;;;;;;;;;;;;
2020/06/07 00:14:55;;;;;;;2.5;1.4;;;;;;;;;;;;;
2020/06/07 00:17:26;;;;;;;4.1;1.4;;;;;;;;;;;;;
2020/06/07 00:19:59;;;;;;;2.3;1;;;;;;;;;;;;;
2020/06/07 00:22:35;;;;;;;2.3;0.8;;;;;;;;;;;;;
2020/06/07 00:30:14;;;;;;;2.2;0.7;;;;;;;;;;;;;
2020/06/07 00:32:55;;;;;;;2.8;0.8;;;;;;;;;;;;;
2020/06/07 00:37:08;;;;;;;3.7;0.7;;;;;;;;;;;;;
2020/06/07 00:39:33;;;;;;;2.7;0.8;;;;;;;;;;;;;
2020/06/07 00:42:07;;;;;;;2;0.7;;;;;;;;;;;;;
2020/06/07 00:44:40;;;;;;;1.3;0.7;;;;;;;;;;;;;
2020/06/07 00:47:06;;;;;;;1.8;0.7;;;;;;;;;;;;;
2020/06/07 00:49:31;;;;;;;2.2;0.8;;;;;;;;;;;;;
2020/06/07 00:51:57;;;;;;;2.1;0.9;;;;;;;;;;;;;
2020/06/07 00:54:22;;;;;;;2.4;1;;;;;;;;;;;;;
2020/06/07 00:56:47;;;;;;;2.4;1;;;;;;;;;;;;;
2020/06/07 00:59:13;;;;;;;2.6;1.1;;;;;;;;;;;;;
2020/06/07 01:01:44;;;;;;;4;1.3;;;;;;;;;;;;;
2020/06/07 01:04:18;;;;;;;4.3;1.1;;;;;;;;;;;;;
2020/06/07 01:06:48;;;;;;;2.4;1.4;;;;;;;;;;;;;
2020/06/07 01:09:13;;;;;;;2.5;1.4;;;;;;;;;;;;;
2020/06/07 01:11:48;;;;;;;2.7;1.5;;;;;;;;;;;;;
2020/06/07 01:14:21;;;;;;;3;2.1;;;;;;;;;;;;;
2020/06/07 01:16:47;;;;;;;2.5;1.8;;;;;;;;;;;;;
2020/06/07 01:19:13;;;;;;;3.5;1.7;;;;;;;;;;;;;
2020/06/07 01:21:38;;;;;;;3;1.3;;;;;;;;;;;;;
2020/06/07 01:24:12;;;;;;;2.8;1.6;;;;;;;;;;;;;
2020/06/07 01:26:42;;;;;;;2.7;1.7;;;;;;;;;;;;;
2020/06/07 01:29:17;;;;;;;3.3;2;;;;;;;;;;;;;
2020/06/07 01:31:50;;;;;;;3.7;1.7;;;;;;;;;;;;;
2020/06/07 01:34:23;;;;;;;3.5;2.3;;;;;;;;;;;;;
2020/06/07 01:36:48;;;;;;;4;1.8;;;;;;;;;;;;;
2020/06/07 01:41:38;;;;;;;2.6;1.4;;;;;;;;;;;;;
2020/06/07 01:44:03;;;;;;;3.2;1.5;;;;;;;;;;;;;
2020/06/07 01:46:34;;;;;;;3.3;1.5;;;;;;;;;;;;;
2020/06/07 01:49:09;;;;;;;3.9;1.4;;;;;;;;;;;;;
2020/06/07 01:51:36;;;;;;;4.4;1.6;;;;;;;;;;;;;
2020/06/07 01:57:16;;;;;;;3.3;1.5;;;;;;;;;;;;;
2020/06/07 01:59:19;;;;;;;2.6;1.2;;;;;;;;;;;;;
2020/06/07 02:09:36;;;;;;;2.1;1.1;;;;;;;;;;;;;
2020/06/07 02:11:30;;;;;;;2.8;1.1;;;;;;;;;;;;;
2020/06/07 02:14:07;;;;;;;2.2;1;;;;;;;;;;;;;
2020/06/07 02:18:52;;;;;;;1.9;1.1;;;;;;;;;;;;;
2020/06/07 02:23:42;;;;;;;2.4;1.1;;;;;;;;;;;;;
2020/06/07 02:26:14;;;;;;;1.4;0.9;;;;;;;;;;;;;
2020/06/07 02:28:31;;;;;;;1;0.9;;;;;;;;;;;;;
2020/06/07 02:33:28;;;;;;;1.7;1;;;;;;;;;;;;;
2020/06/07 02:38:17;;;;;;;1.5;1.1;;;;;;;;;;;;;
2020/06/07 02:41:05;;;;;;;1.5;1.1;;;;;;;;;;;;;
2020/06/07 02:43:08;;;;;;;1.6;1.1;;;;;;;;;;;;;
2020/06/07 02:45:34;;;;;;;2.5;1;;;;;;;;;;;;;
2020/06/07 02:48:19;;;;;;;2.8;1.3;;;;;;;;;;;;;
2020/06/07 02:50:39;;;;;;;3.6;1.2;;;;;;;;;;;;;
2020/06/07 02:55:23;;;;;;;2.2;1;;;;;;;;;;;;;
2020/06/07 02:57:51;;;;;;;2.2;1.3;;;;;;;;;;;;;
2020/06/07 03:05:33;;;;;;;1.9;1;;;;;;;;;;;;;
2020/06/07 03:08:05;;;;;;;1.8;0.9;;;;;;;;;;;;;
2020/06/07 03:10:32;;;;;;;2.7;1.2;;;;;;;;;;;;;
2020/06/07 03:12:49;;;;;;;2.7;0.9;;;;;;;;;;;;;
2020/06/07 03:15:20;;;;;;;1.9;1.1;;;;;;;;;;;;;
2020/06/07 03:17:44;;;;;;;1;0.9;;;;;;;;;;;;;
2020/06/07 03:20:14;;;;;;;1.5;0.9;;;;;;;;;;;;;
2020/06/07 03:25:11;;;;;;;0.9;0.8;;;;;;;;;;;;;
2020/06/07 03:27:44;;;;;;;1.6;0.9;;;;;;;;;;;;;
2020/06/07 03:30:17;;;;;;;2.5;1;;;;;;;;;;;;;
2020/06/07 03:35:13;;;;;;;2.5;0.8;;;;;;;;;;;;;
2020/06/07 03:37:33;;;;;;;2.5;0.9;;;;;;;;;;;;;
2020/06/07 03:40:02;;;;;;;1.9;0.8;;;;;;;;;;;;;
2020/06/07 03:52:38;;;;;;;1.4;0.7;;;;;;;;;;;;;
2020/06/07 03:57:24;;;;;;;2.4;1;;;;;;;;;;;;;
2020/06/07 03:59:48;;;;;;;1;0.8;;;;;;;;;;;;;
2020/06/07 04:02:52;;;;;;;1.4;1;;;;;;;13.79;89.70508;927.8842;;;;
2020/06/07 04:13:11;;;;;;;2;1.2;;;;;;;13.76;90.06641;927.9113;;;;
2020/06/07 04:15:37;;;;;;;2.1;1.3;;;;;;;13.72;89.89746;927.9376;;;;
2020/06/07 04:18:10;;;;;;;3.5;1.3;;;;;;;13.74;89.64844;927.9357;;;;
2020/06/07 04:25:29;;;;;;;2.8;1.2;;;;;;;13.78;89.42773;927.9044;;;;
2020/06/07 04:28:14;;;;;;;2.6;1.1;;;;;;;13.85;89.7168;927.921;;;;
2020/06/07 04:30:33;;;;;;;5.6;1.5;;;;;;;13.9;89.66797;927.8744;;;;
2020/06/07 04:33:01;;;;;;;2.7;1.3;;;;;;;13.97;89.32617;927.8298;;;;
2020/06/07 04:40:54;;;;;;;2;1.1;;;;;;;14.29;88.22949;927.9613;;;;
2020/06/07 04:43:34;;;;;;;2.8;1.2;;;;;;;14.4;87.86035;927.9742;;;;
2020/06/07 04:46:13;;;;;;;4.3;1.6;;;;;;;14.49;87.14063;928.0656;;;;
2020/06/07 04:50:45;;;;;;;6;1.5;;;;;;;14.57;87.17969;928.1079;;;;
2020/06/07 04:54:24;;;;;;;2.5;1.3;;;;;;;14.57;86.98438;928.1616;;;;
2020/06/07 04:58:50;;;;;;;3;1.2;;;;;;;14.56;86.83301;928.0616;;;;
2020/06/07 05:02:04;;;;;;;3.1;1.1;;;;;;;14.59;87.09375;928.0906;;;;
2020/06/07 05:07:21;;;;;;;4;1.2;;;;;;;14.68;85.66895;928.2516;;;;
2020/06/07 05:08:18;;;;;;;3.6;1;;;;;;;14.68;86.7998;928.2562;;;;
2020/06/07 05:10:42;;;;;;;2.7;1.1;;;;;;;14.81;87.06543;928.2424;;;;
2020/06/07 05:20:52;;;;;;;1.4;1;;;;;;;14.98;85.9248;928.1736;;;;
2020/06/07 05:24:36;;;;;;;2.4;1.1;;;;;;;14.94;86.62012;928.169;;;;
2020/06/07 05:26:44;;;;;;;1.9;0.9;;;;;;;14.9;86.31055;928.1819;;;;
2020/06/07 05:28:48;;;;;;;1.9;1.2;;;;;;;14.91;86.29102;928.1247;;;;
2020/06/07 05:37:31;;;;;;;1.6;1.2;;;;;;;15.04;85.18555;928.0411;;;;
2020/06/07 05:47:01;;;;;;;2.1;1.3;;;;;;;14.75;87.86133;927.9583;;;;
2020/06/07 05:49:23;;;;;;;3.6;1.2;;;;;;;14.75;87.91895;928.0105;;;;
2020/06/07 06:02:08;;;;;;;1.7;1.3;;;;;;;14.75;86.59375;928.1843;;;;
2020/06/07 06:05:06;;;;;;;1.8;1.2;;;;;;;14.76;86.60645;928.2015;;;;
2020/06/07 06:09:42;;;;;;;1.6;1.2;;;;;;;14.74;86.55762;928.1451;;;;
2020/06/07 06:12:06;;;;;;;2.7;1.3;;;;;;;14.58;85.68359;928.1909;;;;
2020/06/07 06:14:50;;;;;;;1.5;1.4;;;;;;;14.58;87.18164;928.2151;;;;
2020/06/07 06:19:55;;;;;;;2.8;1.7;;;;;;;14.74;86.75293;928.3735;;;;
2020/06/07 06:24:57;;;;;;;4.8;1.7;;;;;;;14.72;85.96582;928.3845;;;;
2020/06/07 06:27:40;;;;;;;1.6;1.5;;;;;;;14.7;85.58203;928.4138;;;;
2020/06/07 06:32:33;;;;;;;3.6;1.3;;;;;;;14.64;85.63672;928.4785;;;;
2020/06/07 06:34:57;;;;;;;1.7;1.5;;;;;;;14.56;85.35742;928.4319;;;;
2020/06/07 06:37:26;;;;;;;7.5;1.3;;;;;;;14.59;85.78906;928.391;;;;
2020/06/07 06:39:59;;;;;;;2.3;1.4;;;;;;;14.64;85.51172;928.4359;;;;
2020/06/07 06:42:27;;;;;;;2.5;1.2;;;;;;;14.69;85.38184;928.4558;;;;
2020/06/07 06:55:58;;;;;;;3.4;1.3;;;;;;;14.61;85.9082;928.6639;;;;
2020/06/07 07:03:07;;;;;;;1.3;1.1;;;;;;;14.43;85.72461;928.7556;;;;
2020/06/07 07:05:29;;;;;;;1.4;1.1;;;;;;;14.31;86.1377;928.7216;;;;
2020/06/07 07:08:21;;;;;;;1.7;0.9;;;;;;;14.29;86.47949;928.6884;;;;
2020/06/07 07:13:30;;;;;;;1.4;1.2;;;;;;;14.27;86.77539;928.7528;;;;
2020/06/07 07:16:05;;;;;;;3.4;1;;;;;;;14.17;86.69727;928.7569;;;;
2020/06/07 07:21:26;;;;;;;4.7;1.1;;;;;;;13.98;87.12988;928.7827;;;;
2020/06/07 07:23:50;;;;;;;4;1.3;;;;;;;13.96;87.08008;928.8599;;;;
2020/06/07 07:26:23;;;;;;;1.8;1.1;;;;;;;13.9;87.10254;928.8363;;;;
2020/06/07 07:31:22;;;;;;;3.6;1.1;;;;;;;13.72;86.6543;928.9944;;;;
2020/06/07 07:36:35;;;;;;;3.8;0.8;;;;;;;13.73;86.0459;928.9911;;;;
2020/06/07 07:41:24;;;;;;;0.7;0.7;;;;;;;13.73;85.4248;929.0101;;;;
2020/06/07 07:43:53;;;;;;;1.1;0.5;;;;;;;13.67;85.19629;928.9576;;;;
2020/06/07 07:48:59;;;;;;;1.7;0.5;;;;;;;13.62;85.63379;929.0122;;;;
2020/06/07 07:51:58;;;;;;;1.2;0.9;;;;;;;13.57;86.62305;928.9832;;;;
2020/06/07 07:54:05;;;;;;;0.6;0.6;;;;;;;13.62;85.97656;929.0098;;;;
2020/06/07 07:57:22;;;;;;;1.5;0.5;;;;;;;13.57;85.69238;929.0583;;;;
2020/06/07 07:59:26;;;;;;;1.6;0.7;;;;;;;13.47;86.01563;929.0553;;;;
2020/06/07 08:02:40;;;;;;;2.4;0.8;;;;;;;13.38;86.38086;929.1395;;;;
2020/06/07 08:09:53;;;;;;;1;0.8;;;;;;;13.34;86.00195;929.229;;;;
2020/06/07 08:12:41;;;;;;;1.5;0.8;;;;;;;13.31;85.58301;929.2726;;;;
2020/06/07 08:14:51;;;;;;;1.3;0.8;;;;;;;13.24;85.38672;929.2336;;;;
2020/06/07 08:20:02;;;;;;;2.1;0.5;;;;;;;13.31;85.06738;929.163;;;;
2020/06/07 08:25:01;;;;;;;1;0.6;;;;;;;13.2;85.03516;929.1796;;;;
2020/06/07 08:27:29;;;;;;;2.4;0.8;;;;;;;;;;;;;
2020/06/07 08:32:22;;;;;;;1.6;0.5;;;;;;;;;;;;;
2020/06/07 08:37:05;;;;;;;0.5;0.5;;;;;;;;;;;;;
2020/06/07 08:39:37;;;;;;;0.7;0.5;;;;;;;;;;;;;
2020/06/07 08:42:03;;;;;;;0.8;0.6;;;;;;;;;;;;;
2020/06/07 08:44:37;;;;;;;1.4;0.6;;;;;;;;;;;;;
2020/06/07 08:47:04;;;;;;;2.1;0.6;;;;;;;;;;;;;
2020/06/07 08:49:29;;;;;;;1;0.7;;;;;;;;;;;;;
2020/06/07 08:51:56;;;;;;;1;0.7;;;;;;;;;;;;;
2020/06/07 08:54:23;;;;;;;1;0.7;;;;;;;;;;;;;
2020/06/07 08:56:52;;;;;;;2.1;1;;;;;;;;;;;;;
2020/06/07 08:59:18;;;;;;;1.1;0.9;;;;;;;;;;;;;
2020/06/07 09:01:49;;;;;;;1;0.9;;;;;;;;;;;;;
2020/06/07 09:04:20;;;;;;;0.9;0.8;;;;;;;;;;;;;
2020/06/07 09:06:50;;;;;;;1.7;0.9;;;;;;;;;;;;;
2020/06/07 09:09:15;;;;;;;1.2;0.7;;;;;;;;;;;;;
2020/06/07 09:11:40;;;;;;;2.8;0.8;;;;;;;;;;;;;
2020/06/07 09:14:05;;;;;;;1.9;0.7;;;;;;;;;;;;;
2020/06/07 09:16:31;;;;;;;1;0.8;;;;;;;;;;;;;
2020/06/07 09:18:56;;;;;;;1.5;0.7;;;;;;;;;;;;;
2020/06/07 09:21:22;;;;;;;1.3;0.7;;;;;;;;;;;;;
2020/06/07 09:23:51;;;;;;;0.6;0.6;;;;;;;;;;;;;
2020/06/07 09:26:16;;;;;;;1.1;0.6;;;;;;;;;;;;;
2020/06/07 09:28:45;;;;;;;0.7;0.7;;;;;;;;;;;;;
2020/06/07 09:33:36;;;;;;;0.5;0.5;;;;;;;;;;;;;
2020/06/07 09:36:00;;;;;;;1.7;0.7;;;;;;;;;;;;;
2020/06/07 09:38:26;;;;;;;2.4;0.7;;;;;;;;;;;;;
2020/06/07 09:40:59;;;;;;;0.8;0.6;;;;;;;;;;;;;
2020/06/07 09:43:30;;;;;;;0.8;0.6;;;;;;;;;;;;;
2020/06/07 09:45:50;;;;;;;0.5;0.5;;;;;;;;;;;;;
2020/06/07 09:48:15;;;;;;;1;0.5;;;;;;;;;;;;;
2020/06/07 09:50:41;;;;;;;1.2;0.5;;;;;;;;;;;;;
2020/06/07 09:53:12;;;;;;;1.4;0.5;;;;;;;;;;;;;
2020/06/07 09:58:08;;;;;;;1.1;0.5;;;;;;;;;;;;;
2020/06/07 10:00:36;;;;;;;1.2;0.5;;;;;;;;;;;;;
2020/06/07 10:03:10;;;;;;;1.4;0.7;;;;;;;;;;;;;
2020/06/07 10:05:49;;;;;;;1.7;0.7;;;;;;;;;;;;;
2020/06/07 10:08:13;;;;;;;1;0.6;;;;;;;;;;;;;
2020/06/07 10:11:03;;;;;;;0.7;0.5;;;;;;;;;;;;;
2020/06/07 10:13:54;;;;;;;1.1;0.8;;;;;;;;;;;;;
2020/06/07 10:15:50;;;;;;;1.3;0.6;;;;;;;;;;;;;
2020/06/07 10:18:07;;;;;;;1.2;0.4;;;;;;;;;;;;;
2020/06/07 10:20:32;;;;;;;0.6;0.4;;;;;;;;;;;;;
2020/06/07 10:23:40;;;;;;;1.6;0.4;;;;;;;;;;;;;
2020/06/07 10:28:17;;;;;;;1.9;0.6;;;;;;;;;;;;;
2020/06/07 10:35:39;;;;;;;0.8;0.4;;;;;;;;;;;;;
2020/06/07 10:38:57;;;;;;;0.4;0.4;;;;;;;;;;;;;
2020/06/07 10:40:36;;;;;;;0.7;0.3;;;;;;;;;;;;;
2020/06/07 10:45:34;;;;;;;0.6;0.3;;;;;;;;;;;;;
2020/06/07 10:48:09;;;;;;;1.2;0.5;;;;;;;;;;;;;
2020/06/07 10:50:28;;;;;;;1.8;0.4;;;;;;;;;;;;;
2020/06/07 10:52:43;;;;;;;0.8;0.5;;;;;;;;;;;;;
2020/06/07 10:55:10;;;;;;;0.6;0.5;;;;;;;;;;;;;
2020/06/07 10:57:51;;;;;;;0.7;0.6;;;;;;;;;;;;;
2020/06/07 11:06:04;;;;;;;1.3;0.6;;;;;;;;;;;;;
2020/06/07 11:07:43;;;;;;;1.2;0.7;;;;;;;;;;;;;
2020/06/07 11:10:07;;;;;;;1;0.6;;;;;;;;;;;;;
2020/06/07 11:13:07;;;;;;;2.1;0.7;;;;;;;;;;;;;
2020/06/07 11:15:07;;;;;;;0.9;0.6;;;;;;;;;;;;;
2020/06/07 11:17:25;;;;;;;1.4;0.7;;;;;;;;;;;;;
2020/06/07 11:20:24;;;;;;;1.3;0.6;;;;;;;;;;;;;
2020/06/07 11:22:22;;;;;;;1;0.6;;;;;;;;;;;;;
2020/06/07 11:24:35;;;;;;;0.9;0.5;;;;;;;;;;;;;
2020/06/07 11:27:10;;;;;;;1.9;0.6;;;;;;;;;;;;;
2020/06/07 11:29:39;;;;;;;1.1;0.6;;;;;;;;;;;;;
2020/06/07 11:32:18;;;;;;;2.7;0.7;;;;;;;;;;;;;
2020/06/07 11:37:03;;;;;;;1.9;0.7;;;;;;;;;;;;;
2020/06/07 11:39:24;;;;;;;2.3;0.9;;;;;;;;;;;;;
2020/06/07 11:42:32;;;;;;;4.6;1.2;;;;;;;;;;;;;
2020/06/07 11:46:52;;;;;;;2.1;0.8;;;;;;;;;;;;;
2020/06/07 11:49:27;;;;;;;1.5;0.8;;;;;;;;;;;;;
2020/06/07 11:54:12;;;;;;;2;1;;;;;;;;;;;;;
2020/06/07 11:56:52;;;;;;;4.2;0.7;;;;;;;;;;;;;
2020/06/07 11:59:17;;;;;;;1.2;0.7;;;;;;;;;;;;;
2020/06/07 12:04:06;;;;;;;1.6;0.9;;;;;;;;;;;;;
2020/06/07 12:06:46;;;;;;;2.8;0.8;;;;;;;;;;;;;
2020/06/07 12:09:25;;;;;;;1.9;0.7;;;;;;;;;;;;;
2020/06/07 12:11:28;;;;;;;2.5;1;;;;;;;;;;;;;
2020/06/07 12:14:03;;;;;;;2.8;1.1;;;;;;;;;;;;;
2020/06/07 12:19:05;;;;;;;4.4;0.8;;;;;;;;;;;;;
2020/06/07 12:21:21;;;;;;;2.6;0.9;;;;;;;;;;;;;
2020/06/07 12:28:52;;;;;;;2.2;1;;;;;;;;;;;;;
2020/06/07 12:31:15;;;;;;;2.6;0.9;;;;;;;;;;;;;
2020/06/07 12:34:02;;;;;;;4.1;1.1;;;;;;;;;;;;;
2020/06/07 12:36:09;;;;;;;1.5;0.9;;;;;;;;;;;;;
2020/06/07 12:38:30;;;;;;;2.2;1;;;;;;;;;;;;;
2020/06/07 12:41:14;;;;;;;3.4;0.9;;;;;;;;;;;;;
2020/06/07 12:49:04;;;;;;;1.9;0.6;;;;;;;;;;;;;
2020/06/07 12:53:38;;;;;;;1.9;0.8;;;;;;;;;;;;;
2020/06/07 12:56:02;;;;;;;2.6;0.8;;;;;;;;;;;;;
2020/06/07 13:01:10;;;;;;;2.6;0.9;;;;;;;;;;;;;
2020/06/07 13:03:27;;;;;;;2.4;1.1;;;;;;;;;;;;;
2020/06/07 13:08:18;;;;;;;3;1.9;;;;;;;;;;;;;
2020/06/07 13:10:47;;;;;;;2.7;1.5;;;;;;;;;;;;;
2020/06/07 13:13:12;;;;;;;2.2;1.3;;;;;;;;;;;;;
2020/06/07 13:15:45;;;;;;;1.5;0.9;;;;;;;;;;;;;
2020/06/07 13:19:13;;;;;;;3.2;1;;;;;;;;;;;;;
2020/06/07 13:20:44;;;;;;;2.1;0.7;;;;;;;;;;;;;
2020/06/07 13:23:12;;;;;;;1.6;0.6;;;;;;;;;;;;;
2020/06/07 13:25:49;;;;;;;0.8;0.6;;;;;;;;;;;;;
2020/06/07 13:30:57;;;;;;;1.4;0.7;;;;;;;;;;;;;
2020/06/07 13:33:09;;;;;;;2.8;0.7;;;;;;;;;;;;;
2020/06/07 13:35:34;;;;;;;2.1;0.7;;;;;;;;;;;;;
2020/06/07 13:40:44;;;;;;;1.3;0.7;;;;;;;;;;;;;
2020/06/07 13:47:52;;;;;;;1.3;0.8;;;;;;;;;;;;;
2020/06/07 13:52:46;;;;;;;2;0.7;;;;;;;;;;;;;
2020/06/07 13:55:15;;;;;;;0.8;0.6;;;;;;;;;;;;;
2020/06/07 13:57:47;;;;;;;1;0.7;;;;;;;;;;;;;
2020/06/07 14:00:10;;;;;;;1.4;0.6;;;;;;;;;;;;;
2020/06/07 14:02:36;;;;;;;1;0.6;;;;;;;;;;;;;
2020/06/07 14:05:11;;;;;;;0.9;0.6;;;;;;;;;;;;;
2020/06/07 14:07:31;;;;;;;1.2;0.7;;;;;;;;;;;;;
2020/06/07 14:12:41;;;;;;;2.6;0.6;;;;;;;;;;;;;
2020/06/07 14:15:04;;;;;;;1;0.7;;;;;;;;;;;;;
2020/06/07 14:17:45;;;;;;;1.2;0.7;;;;;;;;;;;;;
2020/06/07 14:20:45;;;;;;;1.3;0.8;;;;;;;;;;;;;
2020/06/07 14:30:08;;;;;;;1.6;0.9;;;;;;;;;;;;;
2020/06/07 14:32:39;;;;;;;1.2;1;;;;;;;;;;;;;
2020/06/07 14:35:09;;;;;;;1.8;1.1;;;;;;;;;;;;;
2020/06/07 14:37:22;;;;;;;1.5;0.9;;;;;;;;;;;;;
2020/06/07 14:42:51;;;;;;;1.5;1;;;;;;;;;;;;;
2020/06/07 14:44:43;;;;;;;1.3;0.8;;;;;;;;;;;;;
2020/06/07 14:54:38;;;;;;;3.1;0.9;;;;;;;;;;;;;
2020/06/07 14:56:58;;;;;;;1.8;0.9;;;;;;;;;;;;;
2020/06/07 15:02:12;;;;;;;2.6;0.9;;;;;;;;;;;;;
2020/06/07 15:04:23;;;;;;;7.6;1;;;;;;;;;;;;;
2020/06/07 15:09:30;;;;;;;4.1;0.7;;;;;;;;;;;;;
2020/06/07 15:14:27;;;;;;;1.2;0.8;;;;;;;;;;;;;
2020/06/07 15:16:41;;;;;;;3.3;1.2;;;;;;;;;;;;;
2020/06/07 15:21:29;;;;;;;6.2;3.1;;;;;;;;;;;;;
2020/06/07 15:23:50;;;;;;;6.2;2.9;;;;;;;;;;;;;
2020/06/07 15:26:22;;;;;;;4.7;1.8;;;;;;;;;;;;;
2020/06/07 15:29:04;;;;;;;2.6;1.2;;;;;;;;;;;;;
2020/06/07 15:34:35;;;;;;;1.6;0.8;;;;;;;;;;;;;
2020/06/07 15:36:58;;;;;;;2.1;1;;;;;;;;;;;;;
2020/06/07 15:39:00;;;;;;;2.7;0.9;;;;;;;;;;;;;
2020/06/07 15:46:11;;;;;;;1.5;1;;;;;;;;;;;;;
2020/06/07 15:48:45;;;;;;;1.3;0.9;;;;;;;;;;;;;
2020/06/07 15:53:40;;;;;;;1.8;1.2;;;;;;;;;;;;;
2020/06/07 15:58:30;;;;;;;1.7;1.3;;;;;;;;;;;;;
2020/06/07 16:05:05;;;;;;;1.7;1.2;;;;;;;;;;;;;
2020/06/07 16:05:50;;;;;;;1.6;1.1;;;;;;;;;;;;;
2020/06/07 16:18:38;;;;;;;1.7;1.3;;;;;;;;;;;;;
2020/06/07 16:21:21;;;;;;;4.3;2.9;;;;;;;;;;;;;
2020/06/07 16:23:15;;;;;;;2.9;1.4;;;;;;;;;;;;;
2020/06/07 16:25:46;;;;;;;3;2.2;;;;;;;;;;;;;
2020/06/07 16:28:05;;;;;;;6.3;4.8;;;;;;;;;;;;;
2020/06/07 16:30:40;;;;;;;3.2;2.3;;;;;;;;;;;;;
2020/06/07 16:33:08;;;;;;;2.5;1.8;;;;;;;;;;;;;
2020/06/07 16:36:09;;;;;;;1.6;1.3;;;;;;;;;;;;;
2020/06/07 16:40:28;;;;;;;1.9;1.5;;;;;;;;;;;;;
2020/06/07 16:43:00;;;;;;;2;1.4;;;;;;;;;;;;;
2020/06/07 16:45:45;;;;;;;1.5;1.2;;;;;;;;;;;;;
2020/06/07 16:48:09;;;;;;;1.9;1.4;;;;;;;;;;;;;
2020/06/07 16:50:36;;;;;;;1.8;1.2;;;;;;;;;;;;;
2020/06/07 16:55:58;;;;;;;2.2;1.3;;;;;;;;;;;;;
2020/06/07 16:57:47;;;;;;;2.8;1.1;;;;;;;;;;;;;
2020/06/07 17:00:20;;;;;;;2.3;1.2;;;;;;;;;;;;;
2020/06/07 17:02:41;;;;;;;1.2;1.1;;;;;;;;;;;;;
2020/06/07 17:10:18;;;;;;;1.4;1;;;;;;;;;;;;;
2020/06/07 17:12:31;;;;;;;1.3;1.1;;;;;;;;;;;;;
2020/06/07 17:17:23;;;;;;;1.1;1;;;;;;;;;;;;;
2020/06/07 17:19:41;;;;;;;1.2;1.1;;;;;;;;;;;;;
2020/06/07 17:22:10;;;;;;;1.7;1.1;;;;;;;;;;;;;
2020/06/07 17:24:33;;;;;;;1.3;1.1;;;;;;;;;;;;;
2020/06/07 17:27:02;;;;;;;1.4;1.1;;;;;;;;;;;;;
2020/06/07 17:30:57;;;;;;;1.7;1.3;;;;;;;;;;;;;
2020/06/07 17:34:31;;;;;;;1.8;1.4;;;;;;;;;;;;;
2020/06/07 17:37:00;;;;;;;2.1;1.3;;;;;;;;;;;;;
2020/06/07 17:39:24;;;;;;;1.8;1.3;;;;;;;;;;;;;
2020/06/07 17:41:58;;;;;;;4.4;1.4;;;;;;;;;;;;;
2020/06/07 17:44:29;;;;;;;2;1.5;;;;;;;;;;;;;
2020/06/07 17:52:21;;;;;;;2.3;0.9;;;;;;;;;;;;;
2020/06/07 17:54:06;;;;;;;2.2;1.2;;;;;;;;;;;;;
2020/06/07 17:56:35;;;;;;;2.3;1.2;;;;;;;;;;;;;
2020/06/07 17:59:07;;;;;;;2.5;1.3;;;;;;;;;;;;;
2020/06/07 18:01:32;;;;;;;1.6;1.3;;;;;;;;;;;;;
2020/06/07 18:03:55;;;;;;;2.7;1.5;;;;;;;;;;;;;
2020/06/07 18:09:28;;;;;;;1.5;1.2;;;;;;;;;;;;;
2020/06/07 18:17:11;;;;;;;2.3;1.6;;;;;;;;;;;;;
2020/06/07 18:21:39;;;;;;;3.7;2.2;;;;;;;;;;;;;
2020/06/07 18:24:23;;;;;;;2.8;2.1;;;;;;;;;;;;;
2020/06/07 18:26:45;;;;;;;4.1;2.1;;;;;;;;;;;;;
2020/06/07 18:31:52;;;;;;;3.4;2;;;;;;;;;;;;;
2020/06/07 18:34:08;;;;;;;4.2;2.2;;;;;;;;;;;;;
2020/06/07 18:36:29;;;;;;;3.2;1.7;;;;;;;;;;;;;
2020/06/07 18:39:02;;;;;;;2.9;1.8;;;;;;;;;;;;;
2020/06/07 18:43:50;;;;;;;2.8;1.7;;;;;;;;;;;;;
2020/06/07 18:53:44;;;;;;;2.9;1.2;;;;;;;;;;;;;
2020/06/07 18:58:50;;;;;;;2.3;1.4;;;;;;;;;;;;;
2020/06/07 19:08:41;;;;;;;2;1.5;;;;;;;;;;;;;
2020/06/07 19:11:03;;;;;;;2;1.5;;;;;;;;;;;;;
2020/06/07 19:13:29;;;;;;;1.5;1.3;;;;;;;;;;;;;
2020/06/07 19:16:11;;;;;;;2.5;1.7;;;;;;;;;;;;;
2020/06/07 19:20:59;;;;;;;2.1;1.8;;;;;;;;;;;;;
2020/06/07 19:23:19;;;;;;;3;2.4;;;;;;;;;;;;;
2020/06/07 19:26:05;;;;;;;2.4;2.1;;;;;;;;;;;;;
2020/06/07 19:30:43;;;;;;;4.4;2.6;;;;;;;;;;;;;
2020/06/07 19:34:57;;;;;;;2.8;2.5;;;;;;;;;;;;;
2020/06/07 19:38:13;;;;;;;3.4;2.8;;;;;;;;;;;;;
2020/06/07 19:40:41;;;;;;;3.6;2.8;;;;;;;;;;;;;
2020/06/07 19:47:56;;;;;;;3.9;3.5;;;;;;;;;;;;;
2020/06/07 19:50:43;;;;;;;3.7;3.3;;;;;;;;;;;;;
2020/06/07 19:52:49;;;;;;;3.9;3.2;;;;;;;;;;;;;
2020/06/07 19:55:23;;;;;;;4.4;3.9;;;;;;;;;;;;;
2020/06/07 19:57:50;;;;;;;8.3;6.5;;;;;;;;;;;;;
2020/06/07 20:04:07;;;;;;;9.2;7;;;;;;;;;;;;;
2020/06/07 20:10:46;;;;;;;7.5;6.2;;;;;;;;;;;;;
2020/06/07 20:15:53;;;;;;;6.2;5.2;;;;;;;;;;;;;
2020/06/07 20:20:31;;;;;;;6.6;5.1;;;;;;;;;;;;;
2020/06/07 20:22:57;;;;;;;5.4;4.7;;;;;;;;;;;;;
2020/06/07 20:25:19;;;;;;;7.8;4.9;;;;;;;;;;;;;
2020/06/07 20:27:53;;;;;;;6.7;5.3;;;;;;;;;;;;;
2020/06/07 20:30:26;;;;;;;8.3;5.6;;;;;;;;;;;;;
2020/06/07 20:38:02;;;;;;;7.7;6.5;;;;;;;;;;;;;
2020/06/07 20:40:52;;;;;;;7.3;6.3;;;;;;;;;;;;;
2020/06/07 20:43:04;;;;;;;6.9;5.8;;;;;;;;;;;;;
2020/06/07 20:45:39;;;;;;;7.3;5.9;;;;;;;;;;;;;
2020/06/07 20:48:09;;;;;;;7.2;6.2;;;;;;;;;;;;;
2020/06/07 20:50:23;;;;;;;6.9;6.2;;;;;;;;;;;;;
2020/06/07 20:52:45;;;;;;;8.6;7.1;;;;;;;;;;;;;
2020/06/07 20:55:23;;;;;;;8.4;7.4;;;;;;;;;;;;;
2020/06/07 20:58:02;;;;;;;9.6;7;;;;;;;;;;;;;
2020/06/07 21:00:37;;;;;;;8.5;6.8;;;;;;;;;;;;;
2020/06/07 21:03:11;;;;;;;8;6.7;;;;;;;;;;;;;
2020/06/07 21:05:30;;;;;;;7.5;5.7;;;;;;;;;;;;;
2020/06/07 21:11:04;;;;;;;6.2;4.2;;;;;;;;;;;;;
2020/06/07 21:13:05;;;;;;;4.6;3.3;;;;;;;;;;;;;
2020/06/07 21:15:12;;;;;;;3.3;2.6;;;;;;;;;;;;;
2020/06/07 21:20:10;;;;;;;2.7;2;;;;;;;;;;;;;
2020/06/07 21:22:32;;;;;;;3.3;1.9;;;;;;;;;;;;;
2020/06/07 21:24:57;;;;;;;2.8;1.9;;;;;;;;;;;;;
2020/06/07 21:27:27;;;;;;;3.9;2.2;;;;;;;;;;;;;
2020/06/07 21:29:52;;;;;;;4.6;2.5;;;;;;;;;;;;;
2020/06/07 21:32:26;;;;;;;4.4;2.6;;;;;;;;;;;;;
2020/06/07 21:34:51;;;;;;;4;2.3;;;;;;;;;;;;;
2020/06/07 21:37:19;;;;;;;3.2;2.5;;;;;;;;;;;;;
2020/06/07 21:39:44;;;;;;;4.1;2.6;;;;;;;;;;;;;
2020/06/07 21:42:13;;;;;;;4.6;2.2;;;;;;;;;;;;;
2020/06/07 21:44:38;;;;;;;3.2;1.8;;;;;;;;;;;;;
2020/06/07 21:47:03;;;;;;;2.6;1.7;;;;;;;;;;;;;
2020/06/07 21:49:37;;;;;;;3;1.5;;;;;;;;;;;;;
2020/06/07 21:52:09;;;;;;;2;1.6;;;;;;;;;;;;;
2020/06/07 21:54:34;;;;;;;2.2;1.5;;;;;;;;;;;;;
2020/06/07 21:57:00;;;;;;;2.1;1.3;;;;;;;;;;;;;
2020/06/07 21:59:28;;;;;;;3.3;1.4;;;;;;;;;;;;;
2020/06/07 22:01:53;;;;;;;2.8;1.3;;;;;;;;;;;;;
2020/06/07 22:04:20;;;;;;;2.5;1.4;;;;;;;;;;;;;
2020/06/07 22:06:52;;;;;;;2.6;1.2;;;;;;;;;;;;;
2020/06/07 22:09:18;;;;;;;1.9;1.1;;;;;;;;;;;;;
2020/06/07 22:11:50;;;;;;;1.6;1.1;;;;;;;;;;;;;
2020/06/07 22:14:18;;;;;;;1.5;0.8;;;;;;;;;;;;;
2020/06/07 22:16:43;;;;;;;2.5;1.1;;;;;;;;;;;;;
2020/06/07 22:19:08;;;;;;;2.1;1.3;;;;;;;;;;;;;
2020/06/07 22:24:22;;;;;;;2.5;1.6;;;;;;;;;;;;;
2020/06/07 22:26:33;;;;;;;2.6;1.5;;;;;;;;;;;;;
2020/06/07 22:28:58;;;;;;;2.3;1.6;;;;;;;;;;;;;
2020/06/07 22:31:25;;;;;;;2.2;1.6;;;;;;;;;;;;;
2020/06/07 22:34:34;;;;;;;2.9;1.5;;;;;;;;;;;;;
2020/06/07 22:36:26;;;;;;;2.3;1.5;;;;;;;;;;;;;
2020/06/07 22:38:55;;;;;;;3.9;1.5;;;;;;;;;;;;;
2020/06/07 22:41:21;;;;;;;2;1.1;;;;;;;;;;;;;
2020/06/07 22:43:47;;;;;;;1.5;1.2;;;;;;;;;;;;;
2020/06/07 22:46:12;;;;;;;1.4;1.2;;;;;;;;;;;;;
2020/06/07 22:48:41;;;;;;;1.6;1.1;;;;;;;;;;;;;
2020/06/07 22:51:15;;;;;;;1.4;1.1;;;;;;;;;;;;;
2020/06/07 22:53:48;;;;;;;2;1.1;;;;;;;;;;;;;
2020/06/07 22:56:13;;;;;;;3.6;1.2;;;;;;;;;;;;;
2020/06/07 22:58:45;;;;;;;1.5;1.1;;;;;;;;;;;;;
2020/06/07 23:01:29;;;;;;;2.3;0.9;;;;;;;;;;;;;
2020/06/07 23:03:54;;;;;;;1.6;1;;;;;;;;;;;;;
2020/06/07 23:06:19;;;;;;;1.5;1;;;;;;;;;;;;;
2020/06/07 23:08:47;;;;;;;1.7;1.1;;;;;;;;;;;;;
2020/06/07 23:11:13;;;;;;;2.1;1.3;;;;;;;;;;;;;
2020/06/07 23:13:38;;;;;;;1.5;1;;;;;;;;;;;;;
2020/06/07 23:16:08;;;;;;;1.3;1.1;;;;;;;;;;;;;
2020/06/07 23:18:33;;;;;;;2.7;1.2;;;;;;;;;;;;;
2020/06/07 23:21:01;;;;;;;2.6;1.4;;;;;;;;;;;;;
2020/06/07 23:23:26;;;;;;;1.8;1.4;;;;;;;;;;;;;
2020/06/07 23:25:56;;;;;;;1.6;1.3;;;;;;;;;;;;;
2020/06/07 23:28:27;;;;;;;1.7;1.2;;;;;;;;;;;;;
2020/06/07 23:30:52;;;;;;;2.7;1.2;;;;;;;;;;;;;
2020/06/07 23:35:45;;;;;;;2.8;1.2;;;;;;;;;;;;;
2020/06/07 23:38:10;;;;;;;2;1.3;;;;;;;;;;;;;
2020/06/07 23:40:35;;;;;;;1.8;1.2;;;;;;;;;;;;;
2020/06/07 23:43:01;;;;;;;2;0.9;;;;;;;;;;;;;
2020/06/07 23:45:46;;;;;;;2.3;1.2;;;;;;;;;;;;;
2020/06/07 23:48:18;;;;;;;2.1;1.1;;;;;;;;;;;;;
2020/06/07 23:50:42;;;;;;;2.7;1.2;;;;;;;;;;;;;
2020/06/07 23:55:38;;;;;;;1.4;1;;;;;;;;;;;;;
2020/06/07 23:58:00;;;;;;;1.6;1;;;;;;;;;;;;;
